sensor_id;sensor_type;location;lat;lon;timestamp;P1;durP1;ratioP1;P2;durP2;ratioP2
47239;SDS011;32978;53.586;10.052;2022-08-18T00:01:21;7.03;;;3.13;;
47239;SDS011;32978;53.586;10.052;2022-08-18T00:06:18;6.38;;;3.45;;
47239;SDS011;32978;53.586;10.052;2022-08-18T00:11:15;8.32;;;3.25;;
47239;SDS011;32978;53.586;10.052;2022-08-18T00:16:11;6.38;;;4.20;;
47239;SDS011;32978;53.586;10.052;2022-08-18T00:21:07;6.25;;;4.57;;
47239;SDS011;32978;53.586;10.052;2022-08-18T00:26:04;7.40;;;3.50;;
47239;SDS011;32978;53.586;10.052;2022-08-18T00:31:00;6.80;;;4.00;;
47239;SDS011;32978;53.586;10.052;2022-08-18T00:35:56;5.68;;;4.07;;
47239;SDS011;32978;53.586;10.052;2022-08-18T00:40:53;8.35;;;5.53;;
47239;SDS011;32978;53.586;10.052;2022-08-18T00:45:50;8.50;;;4.45;;
47239;SDS011;32978;53.586;10.052;2022-08-18T00:50:57;11.00;;;5.53;;
47239;SDS011;32978;53.586;10.052;2022-08-18T00:55:54;7.07;;;5.20;;
47239;SDS011;32978;53.586;10.052;2022-08-18T01:00:51;7.95;;;5.55;;
47239;SDS011;32978;53.586;10.052;2022-08-18T01:05:50;7.10;;;5.30;;
47239;SDS011;32978;53.586;10.052;2022-08-18T01:10:48;7.45;;;4.97;;
47239;SDS011;32978;53.586;10.052;2022-08-18T01:15:46;12.75;;;6.40;;
47239;SDS011;32978;53.586;10.052;2022-08-18T01:20:51;11.70;;;5.95;;
47239;SDS011;32978;53.586;10.052;2022-08-18T01:26:08;10.63;;;6.97;;
47239;SDS011;32978;53.586;10.052;2022-08-18T01:31:05;13.30;;;6.25;;
47239;SDS011;32978;53.586;10.052;2022-08-18T01:36:08;7.90;;;6.25;;
47239;SDS011;32978;53.586;10.052;2022-08-18T01:41:05;9.43;;;7.03;;
47239;SDS011;32978;53.586;10.052;2022-08-18T01:46:22;13.57;;;7.10;;
47239;SDS011;32978;53.586;10.052;2022-08-18T01:51:19;8.80;;;6.95;;
47239;SDS011;32978;53.586;10.052;2022-08-18T01:56:34;11.82;;;8.57;;
47239;SDS011;32978;53.586;10.052;2022-08-18T02:01:36;11.10;;;8.57;;
47239;SDS011;32978;53.586;10.052;2022-08-18T02:06:43;10.73;;;8.00;;
47239;SDS011;32978;53.586;10.052;2022-08-18T02:11:43;9.25;;;8.35;;
47239;SDS011;32978;53.586;10.052;2022-08-18T02:16:39;16.77;;;8.77;;
47239;SDS011;32978;53.586;10.052;2022-08-18T02:21:35;9.75;;;7.40;;
47239;SDS011;32978;53.586;10.052;2022-08-18T02:26:32;12.10;;;8.73;;
47239;SDS011;32978;53.586;10.052;2022-08-18T02:31:28;11.05;;;8.68;;
47239;SDS011;32978;53.586;10.052;2022-08-18T02:36:25;11.88;;;9.02;;
47239;SDS011;32978;53.586;10.052;2022-08-18T02:41:21;11.35;;;8.68;;
47239;SDS011;32978;53.586;10.052;2022-08-18T02:46:18;14.38;;;10.38;;
47239;SDS011;32978;53.586;10.052;2022-08-18T02:51:14;13.98;;;10.77;;
47239;SDS011;32978;53.586;10.052;2022-08-18T02:56:12;11.88;;;8.98;;
47239;SDS011;32978;53.586;10.052;2022-08-18T03:01:38;12.25;;;10.02;;
47239;SDS011;32978;53.586;10.052;2022-08-18T03:06:35;11.57;;;9.57;;
47239;SDS011;32978;53.586;10.052;2022-08-18T03:11:31;17.08;;;10.98;;
47239;SDS011;32978;53.586;10.052;2022-08-18T03:16:28;11.98;;;9.50;;
47239;SDS011;32978;53.586;10.052;2022-08-18T03:21:29;12.80;;;10.32;;
47239;SDS011;32978;53.586;10.052;2022-08-18T03:26:27;11.75;;;10.32;;
47239;SDS011;32978;53.586;10.052;2022-08-18T03:31:25;12.57;;;9.57;;
47239;SDS011;32978;53.586;10.052;2022-08-18T03:36:24;13.02;;;10.30;;
47239;SDS011;32978;53.586;10.052;2022-08-18T03:41:21;12.30;;;10.45;;
47239;SDS011;32978;53.586;10.052;2022-08-18T03:46:39;12.65;;;11.35;;
47239;SDS011;32978;53.586;10.052;2022-08-18T03:51:36;14.18;;;11.30;;
47239;SDS011;32978;53.586;10.052;2022-08-18T03:56:33;17.02;;;10.43;;
47239;SDS011;32978;53.586;10.052;2022-08-18T04:01:31;14.52;;;10.75;;
47239;SDS011;32978;53.586;10.052;2022-08-18T04:06:33;13.63;;;11.20;;
47239;SDS011;32978;53.586;10.052;2022-08-18T04:11:30;11.75;;;9.82;;
47239;SDS011;32978;53.586;10.052;2022-08-18T04:21:31;13.25;;;10.38;;
47239;SDS011;32978;53.586;10.052;2022-08-18T04:26:28;12.23;;;10.93;;
47239;SDS011;32978;53.586;10.052;2022-08-18T04:31:25;10.35;;;9.25;;
47239;SDS011;32978;53.586;10.052;2022-08-18T04:36:21;13.43;;;9.32;;
47239;SDS011;32978;53.586;10.052;2022-08-18T04:41:18;10.70;;;9.40;;
47239;SDS011;32978;53.586;10.052;2022-08-18T04:46:15;13.13;;;10.77;;
47239;SDS011;32978;53.586;10.052;2022-08-18T04:51:13;12.95;;;10.43;;
47239;SDS011;32978;53.586;10.052;2022-08-18T04:56:31;27.52;;;11.15;;
47239;SDS011;32978;53.586;10.052;2022-08-18T05:01:29;12.65;;;10.13;;
47239;SDS011;32978;53.586;10.052;2022-08-18T05:06:26;13.40;;;9.93;;
47239;SDS011;32978;53.586;10.052;2022-08-18T05:11:23;11.85;;;9.20;;
47239;SDS011;32978;53.586;10.052;2022-08-18T05:16:20;14.30;;;10.02;;
47239;SDS011;32978;53.586;10.052;2022-08-18T05:21:23;13.02;;;10.48;;
47239;SDS011;32978;53.586;10.052;2022-08-18T05:26:20;12.00;;;10.68;;
47239;SDS011;32978;53.586;10.052;2022-08-18T05:31:18;16.48;;;12.52;;
47239;SDS011;32978;53.586;10.052;2022-08-18T05:41:36;12.88;;;10.82;;
47239;SDS011;32978;53.586;10.052;2022-08-18T05:46:35;15.15;;;10.88;;
47239;SDS011;32978;53.586;10.052;2022-08-18T05:51:37;16.85;;;10.82;;
47239;SDS011;32978;53.586;10.052;2022-08-18T05:56:35;14.40;;;10.32;;
47239;SDS011;32978;53.586;10.052;2022-08-18T06:01:42;13.45;;;10.30;;
47239;SDS011;32978;53.586;10.052;2022-08-18T06:06:40;13.15;;;10.30;;
47239;SDS011;32978;53.586;10.052;2022-08-18T06:11:42;12.18;;;10.95;;
47239;SDS011;32978;53.586;10.052;2022-08-18T06:27:07;19.73;;;12.82;;
47239;SDS011;32978;53.586;10.052;2022-08-18T06:37:15;19.83;;;13.02;;
47239;SDS011;32978;53.586;10.052;2022-08-18T06:52:22;15.30;;;12.65;;
47239;SDS011;32978;53.586;10.052;2022-08-18T06:57:53;19.40;;;12.60;;
47239;SDS011;32978;53.586;10.052;2022-08-18T07:02:47;17.03;;;13.47;;
47239;SDS011;32978;53.586;10.052;2022-08-18T07:07:44;21.05;;;15.93;;
47239;SDS011;32978;53.586;10.052;2022-08-18T07:12:41;30.13;;;22.90;;
47239;SDS011;32978;53.586;10.052;2022-08-18T07:17:38;39.80;;;25.92;;
47239;SDS011;32978;53.586;10.052;2022-08-18T07:27:48;42.40;;;27.48;;
47239;SDS011;32978;53.586;10.052;2022-08-18T07:32:47;45.63;;;28.05;;
47239;SDS011;32978;53.586;10.052;2022-08-18T07:37:55;48.55;;;31.13;;
47239;SDS011;32978;53.586;10.052;2022-08-18T07:48:43;33.38;;;23.70;;
47239;SDS011;32978;53.586;10.052;2022-08-18T07:54:08;37.65;;;23.55;;
47239;SDS011;32978;53.586;10.052;2022-08-18T08:09:35;34.30;;;25.35;;
47239;SDS011;32978;53.586;10.052;2022-08-18T08:25:07;57.17;;;33.33;;
47239;SDS011;32978;53.586;10.052;2022-08-18T08:30:25;56.03;;;32.75;;
47239;SDS011;32978;53.586;10.052;2022-08-18T08:35:29;54.10;;;30.08;;
47239;SDS011;32978;53.586;10.052;2022-08-18T08:40:50;62.25;;;31.23;;
47239;SDS011;32978;53.586;10.052;2022-08-18T08:45:51;44.40;;;28.05;;
47239;SDS011;32978;53.586;10.052;2022-08-18T08:55:47;35.97;;;21.30;;
47239;SDS011;32978;53.586;10.052;2022-08-18T09:00:44;34.05;;;21.23;;
47239;SDS011;32978;53.586;10.052;2022-08-18T09:05:49;32.65;;;19.88;;
47239;SDS011;32978;53.586;10.052;2022-08-18T09:21:43;32.55;;;21.38;;
47239;SDS011;32978;53.586;10.052;2022-08-18T09:26:46;31.08;;;21.13;;
47239;SDS011;32978;53.586;10.052;2022-08-18T09:31:44;31.83;;;21.10;;
47239;SDS011;32978;53.586;10.052;2022-08-18T09:37:06;31.13;;;21.88;;
47239;SDS011;32978;53.586;10.052;2022-08-18T09:42:08;31.45;;;21.35;;
47239;SDS011;32978;53.586;10.052;2022-08-18T09:47:07;33.13;;;22.85;;
47239;SDS011;32978;53.586;10.052;2022-08-18T09:57:28;32.33;;;22.10;;
47239;SDS011;32978;53.586;10.052;2022-08-18T10:07:34;29.02;;;22.25;;
47239;SDS011;32978;53.586;10.052;2022-08-18T10:17:59;24.50;;;19.85;;
47239;SDS011;32978;53.586;10.052;2022-08-18T10:22:56;27.15;;;21.65;;
47239;SDS011;32978;53.586;10.052;2022-08-18T10:27:53;24.60;;;20.20;;
47239;SDS011;32978;53.586;10.052;2022-08-18T10:32:51;24.50;;;18.63;;
47239;SDS011;32978;53.586;10.052;2022-08-18T10:37:50;28.05;;;18.92;;
47239;SDS011;32978;53.586;10.052;2022-08-18T10:42:51;26.60;;;19.85;;
47239;SDS011;32978;53.586;10.052;2022-08-18T10:48:24;21.83;;;19.02;;
47239;SDS011;32978;53.586;10.052;2022-08-18T10:53:46;22.08;;;17.55;;
47239;SDS011;32978;53.586;10.052;2022-08-18T11:08:52;27.65;;;18.77;;
47239;SDS011;32978;53.586;10.052;2022-08-18T11:19:11;19.65;;;16.50;;
47239;SDS011;32978;53.586;10.052;2022-08-18T11:29:20;19.27;;;15.55;;
47239;SDS011;32978;53.586;10.052;2022-08-18T11:34:18;20.77;;;16.83;;
47239;SDS011;32978;53.586;10.052;2022-08-18T11:39:17;17.08;;;15.25;;
47239;SDS011;32978;53.586;10.052;2022-08-18T11:44:27;19.90;;;15.93;;
47239;SDS011;32978;53.586;10.052;2022-08-18T11:49:30;17.17;;;13.32;;
47239;SDS011;32978;53.586;10.052;2022-08-18T11:54:34;19.92;;;13.18;;
47239;SDS011;32978;53.586;10.052;2022-08-18T12:04:49;18.05;;;14.35;;
47239;SDS011;32978;53.586;10.052;2022-08-18T12:09:50;15.48;;;13.50;;
47239;SDS011;32978;53.586;10.052;2022-08-18T12:20:20;14.85;;;13.35;;
47239;SDS011;32978;53.586;10.052;2022-08-18T12:25:18;13.57;;;12.18;;
47239;SDS011;32978;53.586;10.052;2022-08-18T12:30:20;12.32;;;11.13;;
47239;SDS011;32978;53.586;10.052;2022-08-18T12:35:18;14.30;;;11.60;;
47239;SDS011;32978;53.586;10.052;2022-08-18T12:40:17;12.32;;;10.95;;
47239;SDS011;32978;53.586;10.052;2022-08-18T12:45:14;13.65;;;12.32;;
47239;SDS011;32978;53.586;10.052;2022-08-18T12:50:11;12.38;;;11.18;;
47239;SDS011;32978;53.586;10.052;2022-08-18T12:55:07;12.95;;;11.20;;
47239;SDS011;32978;53.586;10.052;2022-08-18T13:00:17;12.23;;;11.13;;
47239;SDS011;32978;53.586;10.052;2022-08-18T13:05:15;13.38;;;11.98;;
47239;SDS011;32978;53.586;10.052;2022-08-18T13:10:11;15.85;;;14.20;;
47239;SDS011;32978;53.586;10.052;2022-08-18T13:15:27;14.07;;;11.85;;
47239;SDS011;32978;53.586;10.052;2022-08-18T13:20:24;11.77;;;10.77;;
47239;SDS011;32978;53.586;10.052;2022-08-18T13:25:21;12.85;;;11.75;;
47239;SDS011;32978;53.586;10.052;2022-08-18T13:30:34;12.75;;;11.45;;
47239;SDS011;32978;53.586;10.052;2022-08-18T13:35:31;11.95;;;10.73;;
47239;SDS011;32978;53.586;10.052;2022-08-18T13:40:39;12.90;;;11.63;;
47239;SDS011;32978;53.586;10.052;2022-08-18T13:45:42;12.63;;;11.32;;
47239;SDS011;32978;53.586;10.052;2022-08-18T13:50:39;12.63;;;11.43;;
47239;SDS011;32978;53.586;10.052;2022-08-18T13:55:36;15.57;;;13.07;;
47239;SDS011;32978;53.586;10.052;2022-08-18T14:00:33;12.55;;;11.35;;
47239;SDS011;32978;53.586;10.052;2022-08-18T14:05:30;14.52;;;11.80;;
47239;SDS011;32978;53.586;10.052;2022-08-18T14:10:47;12.40;;;11.20;;
47239;SDS011;32978;53.586;10.052;2022-08-18T14:15:45;13.63;;;11.43;;
47239;SDS011;32978;53.586;10.052;2022-08-18T14:20:48;13.70;;;10.63;;
47239;SDS011;32978;53.586;10.052;2022-08-18T14:26:04;13.15;;;11.02;;
47239;SDS011;32978;53.586;10.052;2022-08-18T14:31:22;11.18;;;10.18;;
47239;SDS011;32978;53.586;10.052;2022-08-18T14:36:19;14.70;;;13.20;;
47239;SDS011;32978;53.586;10.052;2022-08-18T14:41:25;12.73;;;11.52;;
47239;SDS011;32978;53.586;10.052;2022-08-18T14:46:22;14.43;;;12.93;;
47239;SDS011;32978;53.586;10.052;2022-08-18T14:51:27;14.90;;;13.48;;
47239;SDS011;32978;53.586;10.052;2022-08-18T14:56:24;14.77;;;13.27;;
47239;SDS011;32978;53.586;10.052;2022-08-18T15:01:24;15.93;;;14.32;;
47239;SDS011;32978;53.586;10.052;2022-08-18T15:06:21;13.07;;;11.88;;
47239;SDS011;32978;53.586;10.052;2022-08-18T15:11:22;15.85;;;14.23;;
47239;SDS011;32978;53.586;10.052;2022-08-18T15:16:19;14.60;;;12.50;;
47239;SDS011;32978;53.586;10.052;2022-08-18T15:21:24;15.48;;;13.88;;
47239;SDS011;32978;53.586;10.052;2022-08-18T15:26:40;13.68;;;12.38;;
47239;SDS011;32978;53.586;10.052;2022-08-18T15:31:38;12.90;;;11.63;;
47239;SDS011;32978;53.586;10.052;2022-08-18T15:36:54;13.25;;;11.85;;
47239;SDS011;32978;53.586;10.052;2022-08-18T15:41:52;12.52;;;11.30;;
47239;SDS011;32978;53.586;10.052;2022-08-18T15:46:48;12.43;;;11.23;;
47239;SDS011;32978;53.586;10.052;2022-08-18T15:51:48;11.90;;;10.80;;
47239;SDS011;32978;53.586;10.052;2022-08-18T15:56:47;13.88;;;12.52;;
47239;SDS011;32978;53.586;10.052;2022-08-18T16:01:53;12.77;;;11.43;;
47239;SDS011;32978;53.586;10.052;2022-08-18T16:06:49;11.18;;;9.77;;
47239;SDS011;32978;53.586;10.052;2022-08-18T16:11:47;12.18;;;10.98;;
47239;SDS011;32978;53.586;10.052;2022-08-18T16:16:44;12.23;;;11.00;;
47239;SDS011;32978;53.586;10.052;2022-08-18T16:21:40;11.45;;;10.25;;
47239;SDS011;32978;53.586;10.052;2022-08-18T16:26:36;12.75;;;11.10;;
47239;SDS011;32978;53.586;10.052;2022-08-18T16:31:33;11.60;;;10.40;;
47239;SDS011;32978;53.586;10.052;2022-08-18T16:36:29;12.20;;;10.93;;
47239;SDS011;32978;53.586;10.052;2022-08-18T16:41:27;11.70;;;9.80;;
47239;SDS011;32978;53.586;10.052;2022-08-18T16:46:24;11.65;;;10.35;;
47239;SDS011;32978;53.586;10.052;2022-08-18T16:51:22;13.13;;;10.65;;
47239;SDS011;32978;53.586;10.052;2022-08-18T16:56:19;11.52;;;9.85;;
47239;SDS011;32978;53.586;10.052;2022-08-18T17:01:16;11.80;;;10.23;;
47239;SDS011;32978;53.586;10.052;2022-08-18T17:06:44;14.60;;;12.30;;
47239;SDS011;32978;53.586;10.052;2022-08-18T17:11:43;10.52;;;9.40;;
47239;SDS011;32978;53.586;10.052;2022-08-18T17:16:47;10.30;;;9.18;;
47239;SDS011;32978;53.586;10.052;2022-08-18T17:21:44;10.27;;;9.18;;
47239;SDS011;32978;53.586;10.052;2022-08-18T17:26:47;11.23;;;8.75;;
47239;SDS011;32978;53.586;10.052;2022-08-18T17:31:47;11.20;;;9.05;;
47239;SDS011;32978;53.586;10.052;2022-08-18T17:36:46;12.23;;;9.18;;
47239;SDS011;32978;53.586;10.052;2022-08-18T17:41:48;10.40;;;8.32;;
47239;SDS011;32978;53.586;10.052;2022-08-18T17:47:03;11.07;;;8.40;;
47239;SDS011;32978;53.586;10.052;2022-08-18T17:51:59;11.63;;;8.13;;
47239;SDS011;32978;53.586;10.052;2022-08-18T17:57:01;9.80;;;8.40;;
47239;SDS011;32978;53.586;10.052;2022-08-18T18:02:11;13.38;;;8.52;;
47239;SDS011;32978;53.586;10.052;2022-08-18T18:07:34;9.70;;;6.72;;
47239;SDS011;32978;53.586;10.052;2022-08-18T18:12:34;13.23;;;8.25;;
47239;SDS011;32978;53.586;10.052;2022-08-18T18:17:32;12.20;;;8.13;;
47239;SDS011;32978;53.586;10.052;2022-08-18T18:22:32;11.95;;;7.95;;
47239;SDS011;32978;53.586;10.052;2022-08-18T18:32:35;12.98;;;8.38;;
47239;SDS011;32978;53.586;10.052;2022-08-18T18:38:00;13.23;;;8.30;;
47239;SDS011;32978;53.586;10.052;2022-08-18T18:48:13;13.27;;;8.65;;
47239;SDS011;32978;53.586;10.052;2022-08-18T18:58:49;10.52;;;7.68;;
47239;SDS011;32978;53.586;10.052;2022-08-18T19:03:51;17.17;;;7.13;;
47239;SDS011;32978;53.586;10.052;2022-08-18T19:13:56;8.23;;;5.35;;
47239;SDS011;32978;53.586;10.052;2022-08-18T19:19:19;9.00;;;5.65;;
47239;SDS011;32978;53.586;10.052;2022-08-18T19:24:35;9.55;;;5.78;;
47239;SDS011;32978;53.586;10.052;2022-08-18T19:29:35;9.57;;;5.38;;
47239;SDS011;32978;53.586;10.052;2022-08-18T19:34:36;9.80;;;6.45;;
47239;SDS011;32978;53.586;10.052;2022-08-18T19:40:30;6.85;;;5.10;;
47239;SDS011;32978;53.586;10.052;2022-08-18T19:55:10;12.00;;;6.07;;
47239;SDS011;32978;53.586;10.052;2022-08-18T20:05:52;11.73;;;5.82;;
47239;SDS011;32978;53.586;10.052;2022-08-18T20:27:01;8.43;;;5.18;;
47239;SDS011;32978;53.586;10.052;2022-08-18T20:36:39;9.70;;;5.00;;
47239;SDS011;32978;53.586;10.052;2022-08-18T20:41:41;7.85;;;5.25;;
47239;SDS011;32978;53.586;10.052;2022-08-18T20:46:44;11.73;;;5.72;;
47239;SDS011;32978;53.586;10.052;2022-08-18T20:51:48;9.40;;;5.38;;
47239;SDS011;32978;53.586;10.052;2022-08-18T20:56:50;12.05;;;7.00;;
47239;SDS011;32978;53.586;10.052;2022-08-18T21:01:52;16.30;;;6.38;;
47239;SDS011;32978;53.586;10.052;2022-08-18T21:06:48;11.68;;;5.63;;
47239;SDS011;32978;53.586;10.052;2022-08-18T21:11:45;10.60;;;5.38;;
47239;SDS011;32978;53.586;10.052;2022-08-18T21:16:43;8.35;;;4.85;;
47239;SDS011;32978;53.586;10.052;2022-08-18T21:21:44;10.60;;;4.70;;
47239;SDS011;32978;53.586;10.052;2022-08-18T21:26:44;12.25;;;5.55;;
47239;SDS011;32978;53.586;10.052;2022-08-18T21:31:42;11.70;;;6.60;;
47239;SDS011;32978;53.586;10.052;2022-08-18T21:36:47;10.18;;;4.90;;
47239;SDS011;32978;53.586;10.052;2022-08-18T21:41:45;15.18;;;5.90;;
47239;SDS011;32978;53.586;10.052;2022-08-18T21:46:43;10.10;;;5.90;;
47239;SDS011;32978;53.586;10.052;2022-08-18T21:51:44;11.75;;;5.70;;
47239;SDS011;32978;53.586;10.052;2022-08-18T21:56:41;9.07;;;5.97;;
47239;SDS011;32978;53.586;10.052;2022-08-18T22:01:52;9.60;;;5.47;;
47239;SDS011;32978;53.586;10.052;2022-08-18T22:06:50;9.93;;;5.20;;
47239;SDS011;32978;53.586;10.052;2022-08-18T22:11:47;8.75;;;4.97;;
47239;SDS011;32978;53.586;10.052;2022-08-18T22:22:18;12.25;;;6.53;;
47239;SDS011;32978;53.586;10.052;2022-08-18T22:27:33;16.33;;;6.85;;
47239;SDS011;32978;53.586;10.052;2022-08-18T22:32:30;12.68;;;6.68;;
47239;SDS011;32978;53.586;10.052;2022-08-18T22:37:29;12.07;;;6.00;;
47239;SDS011;32978;53.586;10.052;2022-08-18T22:42:29;14.98;;;9.10;;
47239;SDS011;32978;53.586;10.052;2022-08-18T22:47:27;11.85;;;8.27;;
47239;SDS011;32978;53.586;10.052;2022-08-18T22:52:25;13.07;;;7.28;;
47239;SDS011;32978;53.586;10.052;2022-08-18T22:57:25;12.88;;;7.75;;
47239;SDS011;32978;53.586;10.052;2022-08-18T23:02:22;15.13;;;8.52;;
47239;SDS011;32978;53.586;10.052;2022-08-18T23:07:18;12.23;;;8.23;;
47239;SDS011;32978;53.586;10.052;2022-08-18T23:12:18;14.02;;;9.07;;
47239;SDS011;32978;53.586;10.052;2022-08-18T23:17:14;15.88;;;9.75;;
47239;SDS011;32978;53.586;10.052;2022-08-18T23:22:10;16.10;;;9.88;;
47239;SDS011;32978;53.586;10.052;2022-08-18T23:27:07;12.80;;;8.57;;
47239;SDS011;32978;53.586;10.052;2022-08-18T23:32:04;15.95;;;9.02;;
47239;SDS011;32978;53.586;10.052;2022-08-18T23:37:02;14.95;;;8.90;;
47239;SDS011;32978;53.586;10.052;2022-08-18T23:41:59;15.45;;;8.32;;
47239;SDS011;32978;53.586;10.052;2022-08-18T23:46:56;14.82;;;8.93;;
47239;SDS011;32978;53.586;10.052;2022-08-18T23:51:53;14.52;;;9.50;;
47239;SDS011;32978;53.586;10.052;2022-08-18T23:56:51;12.77;;;9.38;;
